sensor_id;sensor_type;location;lat;lon;timestamp;temperature;humidity
15364;DHT22;7781;49.690;6.472;2023-03-14T00:00:08;10.20;99.90
15364;DHT22;7781;49.690;6.472;2023-03-14T00:02:38;10.30;99.90
15364;DHT22;7781;49.690;6.472;2023-03-14T00:05:08;10.30;99.90
15364;DHT22;7781;49.690;6.472;2023-03-14T00:07:39;10.30;99.90
15364;DHT22;7781;49.690;6.472;2023-03-14T00:10:11;10.30;99.90
15364;DHT22;7781;49.690;6.472;2023-03-14T00:12:40;10.20;99.90
15364;DHT22;7781;49.690;6.472;2023-03-14T00:15:10;10.20;99.90
15364;DHT22;7781;49.690;6.472;2023-03-14T00:17:42;10.20;99.90
15364;DHT22;7781;49.690;6.472;2023-03-14T00:20:12;10.20;99.90
15364;DHT22;7781;49.690;6.472;2023-03-14T00:22:42;10.20;99.90
15364;DHT22;7781;49.690;6.472;2023-03-14T00:25:11;10.10;99.90
15364;DHT22;7781;49.690;6.472;2023-03-14T00:27:40;10.00;99.90
15364;DHT22;7781;49.690;6.472;2023-03-14T00:30:10;9.80;99.90
15364;DHT22;7781;49.690;6.472;2023-03-14T00:32:39;9.80;99.90
15364;DHT22;7781;49.690;6.472;2023-03-14T00:35:09;9.80;99.90
15364;DHT22;7781;49.690;6.472;2023-03-14T00:37:37;9.80;99.90
15364;DHT22;7781;49.690;6.472;2023-03-14T00:40:11;9.80;99.90
15364;DHT22;7781;49.690;6.472;2023-03-14T00:42:40;9.80;99.90
15364;DHT22;7781;49.690;6.472;2023-03-14T00:45:09;9.80;99.90
15364;DHT22;7781;49.690;6.472;2023-03-14T00:47:39;9.80;99.90
15364;DHT22;7781;49.690;6.472;2023-03-14T00:50:08;9.80;99.90
15364;DHT22;7781;49.690;6.472;2023-03-14T00:52:38;9.80;99.90
15364;DHT22;7781;49.690;6.472;2023-03-14T00:55:10;9.80;99.90
15364;DHT22;7781;49.690;6.472;2023-03-14T00:57:39;9.90;99.90
15364;DHT22;7781;49.690;6.472;2023-03-14T01:00:10;9.90;99.90
15364;DHT22;7781;49.690;6.472;2023-03-14T01:02:39;9.90;99.90
15364;DHT22;7781;49.690;6.472;2023-03-14T01:05:09;9.90;99.90
15364;DHT22;7781;49.690;6.472;2023-03-14T01:07:38;9.90;99.90
15364;DHT22;7781;49.690;6.472;2023-03-14T01:10:08;9.90;99.90
15364;DHT22;7781;49.690;6.472;2023-03-14T01:12:38;10.00;99.90
15364;DHT22;7781;49.690;6.472;2023-03-14T01:15:08;9.90;99.90
15364;DHT22;7781;49.690;6.472;2023-03-14T01:17:37;9.90;99.90
15364;DHT22;7781;49.690;6.472;2023-03-14T01:20:08;10.00;99.90
15364;DHT22;7781;49.690;6.472;2023-03-14T01:22:39;10.00;99.90
15364;DHT22;7781;49.690;6.472;2023-03-14T01:25:10;10.10;99.90
15364;DHT22;7781;49.690;6.472;2023-03-14T01:27:41;10.10;99.90
15364;DHT22;7781;49.690;6.472;2023-03-14T01:30:11;10.00;99.90
15364;DHT22;7781;49.690;6.472;2023-03-14T01:32:40;9.90;99.90
15364;DHT22;7781;49.690;6.472;2023-03-14T01:35:09;9.90;99.90
15364;DHT22;7781;49.690;6.472;2023-03-14T01:37:38;9.90;99.90
15364;DHT22;7781;49.690;6.472;2023-03-14T01:40:12;9.80;99.90
15364;DHT22;7781;49.690;6.472;2023-03-14T01:42:54;9.80;99.90
15364;DHT22;7781;49.690;6.472;2023-03-14T01:48:43;9.80;99.90
15364;DHT22;7781;49.690;6.472;2023-03-14T01:51:17;9.90;99.90
15364;DHT22;7781;49.690;6.472;2023-03-14T01:53:48;9.90;99.90
15364;DHT22;7781;49.690;6.472;2023-03-14T01:56:18;9.90;99.90
15364;DHT22;7781;49.690;6.472;2023-03-14T01:58:51;9.90;99.90
15364;DHT22;7781;49.690;6.472;2023-03-14T02:01:24;9.70;99.90
15364;DHT22;7781;49.690;6.472;2023-03-14T02:03:56;9.60;99.90
15364;DHT22;7781;49.690;6.472;2023-03-14T02:06:34;9.50;99.90
15364;DHT22;7781;49.690;6.472;2023-03-14T02:09:05;9.40;99.90
15364;DHT22;7781;49.690;6.472;2023-03-14T02:11:35;9.40;99.90
15364;DHT22;7781;49.690;6.472;2023-03-14T02:14:31;9.30;99.90
15364;DHT22;7781;49.690;6.472;2023-03-14T02:17:19;9.30;99.90
15364;DHT22;7781;49.690;6.472;2023-03-14T02:20:20;9.30;99.90
15364;DHT22;7781;49.690;6.472;2023-03-14T02:22:56;9.30;99.90
15364;DHT22;7781;49.690;6.472;2023-03-14T02:25:35;9.30;99.90
15364;DHT22;7781;49.690;6.472;2023-03-14T02:28:09;9.20;99.90
15364;DHT22;7781;49.690;6.472;2023-03-14T02:30:39;9.20;99.90
15364;DHT22;7781;49.690;6.472;2023-03-14T02:33:09;9.20;99.90
15364;DHT22;7781;49.690;6.472;2023-03-14T02:35:42;9.20;99.90
15364;DHT22;7781;49.690;6.472;2023-03-14T02:38:17;9.10;99.90
15364;DHT22;7781;49.690;6.472;2023-03-14T02:40:49;9.10;99.90
15364;DHT22;7781;49.690;6.472;2023-03-14T02:43:20;9.10;99.90
15364;DHT22;7781;49.690;6.472;2023-03-14T02:45:56;9.10;99.90
15364;DHT22;7781;49.690;6.472;2023-03-14T02:48:26;9.10;99.90
15364;DHT22;7781;49.690;6.472;2023-03-14T02:50:58;9.10;99.90
15364;DHT22;7781;49.690;6.472;2023-03-14T02:53:31;9.00;99.90
15364;DHT22;7781;49.690;6.472;2023-03-14T02:56:05;9.00;99.90
15364;DHT22;7781;49.690;6.472;2023-03-14T02:58:37;9.00;99.90
15364;DHT22;7781;49.690;6.472;2023-03-14T03:01:23;8.90;99.90
15364;DHT22;7781;49.690;6.472;2023-03-14T03:03:52;8.90;99.90
15364;DHT22;7781;49.690;6.472;2023-03-14T03:06:20;8.90;99.90
15364;DHT22;7781;49.690;6.472;2023-03-14T03:08:50;8.90;99.90
15364;DHT22;7781;49.690;6.472;2023-03-14T03:11:24;8.90;99.90
15364;DHT22;7781;49.690;6.472;2023-03-14T03:14:01;8.90;99.90
15364;DHT22;7781;49.690;6.472;2023-03-14T03:16:30;9.00;99.90
15364;DHT22;7781;49.690;6.472;2023-03-14T03:18:59;8.90;99.90
15364;DHT22;7781;49.690;6.472;2023-03-14T03:21:28;8.90;99.90
15364;DHT22;7781;49.690;6.472;2023-03-14T03:23:56;9.00;99.90
15364;DHT22;7781;49.690;6.472;2023-03-14T03:26:25;8.90;99.90
15364;DHT22;7781;49.690;6.472;2023-03-14T03:28:55;8.90;99.90
15364;DHT22;7781;49.690;6.472;2023-03-14T03:31:24;8.90;99.90
15364;DHT22;7781;49.690;6.472;2023-03-14T03:33:53;9.00;99.90
15364;DHT22;7781;49.690;6.472;2023-03-14T03:36:25;9.00;99.90
15364;DHT22;7781;49.690;6.472;2023-03-14T03:38:53;8.90;99.90
15364;DHT22;7781;49.690;6.472;2023-03-14T03:41:23;8.90;99.90
15364;DHT22;7781;49.690;6.472;2023-03-14T03:43:52;8.90;99.90
15364;DHT22;7781;49.690;6.472;2023-03-14T03:46:24;8.90;99.90
15364;DHT22;7781;49.690;6.472;2023-03-14T03:48:54;8.90;99.90
15364;DHT22;7781;49.690;6.472;2023-03-14T03:51:25;8.80;99.90
15364;DHT22;7781;49.690;6.472;2023-03-14T03:53:54;8.80;99.90
15364;DHT22;7781;49.690;6.472;2023-03-14T03:56:29;8.80;99.90
15364;DHT22;7781;49.690;6.472;2023-03-14T03:58:59;8.80;99.90
15364;DHT22;7781;49.690;6.472;2023-03-14T04:01:29;8.80;99.90
15364;DHT22;7781;49.690;6.472;2023-03-14T04:04:01;8.80;99.90
15364;DHT22;7781;49.690;6.472;2023-03-14T04:06:30;8.80;99.90
15364;DHT22;7781;49.690;6.472;2023-03-14T04:09:00;8.80;99.90
15364;DHT22;7781;49.690;6.472;2023-03-14T04:11:37;8.80;99.90
15364;DHT22;7781;49.690;6.472;2023-03-14T04:14:35;8.80;99.90
15364;DHT22;7781;49.690;6.472;2023-03-14T04:17:14;8.80;99.90
15364;DHT22;7781;49.690;6.472;2023-03-14T04:19:42;8.70;99.90
15364;DHT22;7781;49.690;6.472;2023-03-14T04:22:11;8.70;99.90
15364;DHT22;7781;49.690;6.472;2023-03-14T04:24:46;8.80;99.90
15364;DHT22;7781;49.690;6.472;2023-03-14T04:27:15;8.70;99.90
15364;DHT22;7781;49.690;6.472;2023-03-14T04:29:46;8.80;99.90
15364;DHT22;7781;49.690;6.472;2023-03-14T04:32:20;8.70;99.90
15364;DHT22;7781;49.690;6.472;2023-03-14T04:34:49;8.70;99.90
15364;DHT22;7781;49.690;6.472;2023-03-14T04:37:17;8.70;99.90
15364;DHT22;7781;49.690;6.472;2023-03-14T04:39:46;8.70;99.90
15364;DHT22;7781;49.690;6.472;2023-03-14T04:42:19;8.70;99.90
15364;DHT22;7781;49.690;6.472;2023-03-14T04:44:48;8.70;99.90
15364;DHT22;7781;49.690;6.472;2023-03-14T04:47:22;8.70;99.90
15364;DHT22;7781;49.690;6.472;2023-03-14T04:49:53;8.70;99.90
15364;DHT22;7781;49.690;6.472;2023-03-14T04:52:23;8.70;99.90
15364;DHT22;7781;49.690;6.472;2023-03-14T04:54:53;8.70;99.90
15364;DHT22;7781;49.690;6.472;2023-03-14T04:57:23;8.70;99.90
15364;DHT22;7781;49.690;6.472;2023-03-14T04:59:52;8.70;99.90
15364;DHT22;7781;49.690;6.472;2023-03-14T05:02:41;8.70;99.90
15364;DHT22;7781;49.690;6.472;2023-03-14T05:05:18;8.70;99.90
15364;DHT22;7781;49.690;6.472;2023-03-14T05:08:13;8.70;99.90
15364;DHT22;7781;49.690;6.472;2023-03-14T05:10:41;8.70;99.90
15364;DHT22;7781;49.690;6.472;2023-03-14T05:13:25;8.60;99.90
15364;DHT22;7781;49.690;6.472;2023-03-14T05:16:11;8.60;99.90
15364;DHT22;7781;49.690;6.472;2023-03-14T05:19:11;8.60;99.90
15364;DHT22;7781;49.690;6.472;2023-03-14T05:21:59;8.60;99.90
15364;DHT22;7781;49.690;6.472;2023-03-14T05:24:31;8.60;99.90
15364;DHT22;7781;49.690;6.472;2023-03-14T05:27:00;8.60;99.90
15364;DHT22;7781;49.690;6.472;2023-03-14T05:29:58;8.60;99.90
15364;DHT22;7781;49.690;6.472;2023-03-14T05:32:45;8.60;99.90
15364;DHT22;7781;49.690;6.472;2023-03-14T05:35:51;8.60;99.90
15364;DHT22;7781;49.690;6.472;2023-03-14T05:38:52;8.60;99.90
15364;DHT22;7781;49.690;6.472;2023-03-14T05:41:47;8.60;99.90
15364;DHT22;7781;49.690;6.472;2023-03-14T05:44:33;8.60;99.90
15364;DHT22;7781;49.690;6.472;2023-03-14T05:47:02;8.50;99.90
15364;DHT22;7781;49.690;6.472;2023-03-14T05:49:57;8.50;99.90
15364;DHT22;7781;49.690;6.472;2023-03-14T05:52:47;8.50;99.90
15364;DHT22;7781;49.690;6.472;2023-03-14T05:55:40;8.50;99.90
15364;DHT22;7781;49.690;6.472;2023-03-14T05:58:20;8.50;99.90
15364;DHT22;7781;49.690;6.472;2023-03-14T06:01:15;8.50;99.90
15364;DHT22;7781;49.690;6.472;2023-03-14T06:04:00;8.50;99.90
15364;DHT22;7781;49.690;6.472;2023-03-14T06:06:29;8.50;99.90
15364;DHT22;7781;49.690;6.472;2023-03-14T06:09:01;8.60;99.90
15364;DHT22;7781;49.690;6.472;2023-03-14T06:11:32;8.60;99.90
15364;DHT22;7781;49.690;6.472;2023-03-14T06:14:03;8.60;99.90
15364;DHT22;7781;49.690;6.472;2023-03-14T06:16:31;8.60;99.90
15364;DHT22;7781;49.690;6.472;2023-03-14T06:19:01;8.60;99.90
15364;DHT22;7781;49.690;6.472;2023-03-14T06:21:29;8.60;99.90
15364;DHT22;7781;49.690;6.472;2023-03-14T06:23:58;8.60;99.90
15364;DHT22;7781;49.690;6.472;2023-03-14T06:26:30;8.60;99.90
15364;DHT22;7781;49.690;6.472;2023-03-14T06:28:58;8.60;99.90
15364;DHT22;7781;49.690;6.472;2023-03-14T06:31:32;8.60;99.90
15364;DHT22;7781;49.690;6.472;2023-03-14T06:34:05;8.60;99.90
15364;DHT22;7781;49.690;6.472;2023-03-14T06:36:34;8.60;99.90
15364;DHT22;7781;49.690;6.472;2023-03-14T06:39:02;8.70;99.90
15364;DHT22;7781;49.690;6.472;2023-03-14T06:41:35;8.70;99.90
15364;DHT22;7781;49.690;6.472;2023-03-14T06:44:04;8.70;99.90
15364;DHT22;7781;49.690;6.472;2023-03-14T06:46:33;8.70;99.90
15364;DHT22;7781;49.690;6.472;2023-03-14T06:49:01;8.70;99.90
15364;DHT22;7781;49.690;6.472;2023-03-14T06:51:32;8.70;99.90
15364;DHT22;7781;49.690;6.472;2023-03-14T06:54:03;8.70;99.90
15364;DHT22;7781;49.690;6.472;2023-03-14T06:56:32;8.70;99.90
15364;DHT22;7781;49.690;6.472;2023-03-14T06:59:04;8.80;99.90
15364;DHT22;7781;49.690;6.472;2023-03-14T07:01:33;8.80;99.90
15364;DHT22;7781;49.690;6.472;2023-03-14T07:04:05;8.80;99.90
15364;DHT22;7781;49.690;6.472;2023-03-14T07:06:38;8.80;99.90
15364;DHT22;7781;49.690;6.472;2023-03-14T07:09:11;8.80;99.90
15364;DHT22;7781;49.690;6.472;2023-03-14T07:11:46;8.80;99.90
15364;DHT22;7781;49.690;6.472;2023-03-14T07:14:18;8.80;99.90
15364;DHT22;7781;49.690;6.472;2023-03-14T07:16:48;8.80;99.90
15364;DHT22;7781;49.690;6.472;2023-03-14T07:19:17;8.90;99.90
15364;DHT22;7781;49.690;6.472;2023-03-14T07:21:46;8.90;99.90
15364;DHT22;7781;49.690;6.472;2023-03-14T07:24:20;8.90;99.90
15364;DHT22;7781;49.690;6.472;2023-03-14T07:26:48;8.90;99.90
15364;DHT22;7781;49.690;6.472;2023-03-14T07:29:19;8.90;99.90
15364;DHT22;7781;49.690;6.472;2023-03-14T07:31:47;9.00;99.90
15364;DHT22;7781;49.690;6.472;2023-03-14T07:34:19;9.00;99.90
15364;DHT22;7781;49.690;6.472;2023-03-14T07:36:48;9.00;99.90
15364;DHT22;7781;49.690;6.472;2023-03-14T07:39:17;9.00;99.90
15364;DHT22;7781;49.690;6.472;2023-03-14T07:41:55;9.10;99.90
15364;DHT22;7781;49.690;6.472;2023-03-14T07:44:47;9.10;99.90
15364;DHT22;7781;49.690;6.472;2023-03-14T07:47:15;9.20;99.90
15364;DHT22;7781;49.690;6.472;2023-03-14T07:49:44;9.20;99.90
15364;DHT22;7781;49.690;6.472;2023-03-14T07:52:13;9.20;99.90
15364;DHT22;7781;49.690;6.472;2023-03-14T07:54:42;9.20;99.90
15364;DHT22;7781;49.690;6.472;2023-03-14T07:57:10;9.20;99.90
15364;DHT22;7781;49.690;6.472;2023-03-14T07:59:38;9.10;99.90
15364;DHT22;7781;49.690;6.472;2023-03-14T08:02:10;9.20;99.90
15364;DHT22;7781;49.690;6.472;2023-03-14T08:04:43;9.20;99.90
15364;DHT22;7781;49.690;6.472;2023-03-14T08:07:11;9.20;99.90
15364;DHT22;7781;49.690;6.472;2023-03-14T08:09:40;9.30;99.90
15364;DHT22;7781;49.690;6.472;2023-03-14T08:12:09;9.40;99.90
15364;DHT22;7781;49.690;6.472;2023-03-14T08:14:37;9.40;99.90
15364;DHT22;7781;49.690;6.472;2023-03-14T08:17:06;9.40;99.90
15364;DHT22;7781;49.690;6.472;2023-03-14T08:19:36;9.40;99.90
15364;DHT22;7781;49.690;6.472;2023-03-14T08:22:05;9.40;99.90
15364;DHT22;7781;49.690;6.472;2023-03-14T08:24:35;9.50;99.90
15364;DHT22;7781;49.690;6.472;2023-03-14T08:27:03;9.50;99.90
15364;DHT22;7781;49.690;6.472;2023-03-14T08:29:38;9.40;99.90
15364;DHT22;7781;49.690;6.472;2023-03-14T08:32:08;9.40;99.90
15364;DHT22;7781;49.690;6.472;2023-03-14T08:34:39;9.40;99.90
15364;DHT22;7781;49.690;6.472;2023-03-14T08:37:07;9.40;99.90
15364;DHT22;7781;49.690;6.472;2023-03-14T08:39:52;9.50;99.90
15364;DHT22;7781;49.690;6.472;2023-03-14T08:42:20;9.50;99.90
15364;DHT22;7781;49.690;6.472;2023-03-14T08:44:50;9.50;99.90
15364;DHT22;7781;49.690;6.472;2023-03-14T08:47:18;9.60;99.90
15364;DHT22;7781;49.690;6.472;2023-03-14T08:49:49;9.50;99.90
15364;DHT22;7781;49.690;6.472;2023-03-14T08:52:17;9.60;99.90
15364;DHT22;7781;49.690;6.472;2023-03-14T08:54:46;9.50;99.90
15364;DHT22;7781;49.690;6.472;2023-03-14T08:57:15;9.50;99.90
15364;DHT22;7781;49.690;6.472;2023-03-14T08:59:43;9.50;99.90
15364;DHT22;7781;49.690;6.472;2023-03-14T09:02:12;9.50;99.90
15364;DHT22;7781;49.690;6.472;2023-03-14T09:04:40;9.50;99.90
15364;DHT22;7781;49.690;6.472;2023-03-14T09:07:10;9.50;99.90
15364;DHT22;7781;49.690;6.472;2023-03-14T09:09:39;9.50;99.90
15364;DHT22;7781;49.690;6.472;2023-03-14T09:12:07;9.50;99.90
15364;DHT22;7781;49.690;6.472;2023-03-14T09:14:36;9.60;99.90
15364;DHT22;7781;49.690;6.472;2023-03-14T09:17:04;9.60;99.90
15364;DHT22;7781;49.690;6.472;2023-03-14T09:19:33;9.70;99.90
15364;DHT22;7781;49.690;6.472;2023-03-14T09:22:01;9.80;99.90
15364;DHT22;7781;49.690;6.472;2023-03-14T09:24:31;9.80;99.90
15364;DHT22;7781;49.690;6.472;2023-03-14T09:27:00;9.80;99.90
15364;DHT22;7781;49.690;6.472;2023-03-14T09:29:29;9.80;99.90
15364;DHT22;7781;49.690;6.472;2023-03-14T09:31:58;9.90;99.90
15364;DHT22;7781;49.690;6.472;2023-03-14T09:34:27;9.90;99.90
15364;DHT22;7781;49.690;6.472;2023-03-14T09:36:56;9.90;99.90
15364;DHT22;7781;49.690;6.472;2023-03-14T09:39:24;10.00;99.90
15364;DHT22;7781;49.690;6.472;2023-03-14T09:41:57;10.10;99.90
15364;DHT22;7781;49.690;6.472;2023-03-14T09:44:29;10.20;99.90
15364;DHT22;7781;49.690;6.472;2023-03-14T09:47:03;10.10;99.90
15364;DHT22;7781;49.690;6.472;2023-03-14T09:49:34;10.10;99.90
15364;DHT22;7781;49.690;6.472;2023-03-14T09:52:10;9.90;99.90
15364;DHT22;7781;49.690;6.472;2023-03-14T09:54:43;9.90;99.90
15364;DHT22;7781;49.690;6.472;2023-03-14T09:57:16;9.70;99.90
15364;DHT22;7781;49.690;6.472;2023-03-14T09:59:47;9.60;99.90
15364;DHT22;7781;49.690;6.472;2023-03-14T10:02:19;9.40;99.90
15364;DHT22;7781;49.690;6.472;2023-03-14T10:04:49;9.30;99.90
15364;DHT22;7781;49.690;6.472;2023-03-14T10:07:28;9.20;99.90
15364;DHT22;7781;49.690;6.472;2023-03-14T10:09:57;9.10;99.90
15364;DHT22;7781;49.690;6.472;2023-03-14T10:12:35;9.00;99.90
15364;DHT22;7781;49.690;6.472;2023-03-14T10:15:08;8.90;99.90
15364;DHT22;7781;49.690;6.472;2023-03-14T10:17:41;8.80;99.90
15364;DHT22;7781;49.690;6.472;2023-03-14T10:20:28;8.80;99.90
15364;DHT22;7781;49.690;6.472;2023-03-14T10:23:01;8.80;99.90
15364;DHT22;7781;49.690;6.472;2023-03-14T10:25:31;8.70;99.90
15364;DHT22;7781;49.690;6.472;2023-03-14T10:28:02;8.70;99.90
15364;DHT22;7781;49.690;6.472;2023-03-14T10:30:38;8.50;99.90
15364;DHT22;7781;49.690;6.472;2023-03-14T10:33:19;8.40;99.90
15364;DHT22;7781;49.690;6.472;2023-03-14T10:35:53;8.30;99.90
15364;DHT22;7781;49.690;6.472;2023-03-14T10:38:25;8.40;99.90
15364;DHT22;7781;49.690;6.472;2023-03-14T10:40:55;8.60;99.90
15364;DHT22;7781;49.690;6.472;2023-03-14T10:43:30;8.70;99.90
15364;DHT22;7781;49.690;6.472;2023-03-14T10:46:02;8.80;99.90
15364;DHT22;7781;49.690;6.472;2023-03-14T10:48:35;8.80;99.90
15364;DHT22;7781;49.690;6.472;2023-03-14T10:51:07;8.70;99.90
15364;DHT22;7781;49.690;6.472;2023-03-14T10:53:43;8.50;99.90
15364;DHT22;7781;49.690;6.472;2023-03-14T10:56:12;8.50;99.90
15364;DHT22;7781;49.690;6.472;2023-03-14T10:58:45;8.40;99.90
15364;DHT22;7781;49.690;6.472;2023-03-14T11:01:27;8.40;99.90
15364;DHT22;7781;49.690;6.472;2023-03-14T11:04:05;8.50;99.90
15364;DHT22;7781;49.690;6.472;2023-03-14T11:06:41;8.60;99.90
15364;DHT22;7781;49.690;6.472;2023-03-14T11:09:17;8.70;99.90
15364;DHT22;7781;49.690;6.472;2023-03-14T11:11:49;8.70;99.90
15364;DHT22;7781;49.690;6.472;2023-03-14T11:14:25;8.80;99.90
15364;DHT22;7781;49.690;6.472;2023-03-14T11:17:00;8.90;99.90
15364;DHT22;7781;49.690;6.472;2023-03-14T11:19:50;8.90;99.90
15364;DHT22;7781;49.690;6.472;2023-03-14T11:22:26;9.00;99.90
15364;DHT22;7781;49.690;6.472;2023-03-14T11:25:06;9.00;99.90
15364;DHT22;7781;49.690;6.472;2023-03-14T11:27:43;8.90;99.90
15364;DHT22;7781;49.690;6.472;2023-03-14T11:30:19;8.90;99.90
15364;DHT22;7781;49.690;6.472;2023-03-14T11:32:56;8.70;99.90
15364;DHT22;7781;49.690;6.472;2023-03-14T11:35:30;8.40;99.90
15364;DHT22;7781;49.690;6.472;2023-03-14T11:38:11;8.00;99.90
15364;DHT22;7781;49.690;6.472;2023-03-14T11:40:41;7.80;99.90
15364;DHT22;7781;49.690;6.472;2023-03-14T11:43:13;7.80;99.90
15364;DHT22;7781;49.690;6.472;2023-03-14T11:45:45;7.80;99.90
15364;DHT22;7781;49.690;6.472;2023-03-14T11:48:25;7.90;99.90
15364;DHT22;7781;49.690;6.472;2023-03-14T11:50:58;7.90;99.90
15364;DHT22;7781;49.690;6.472;2023-03-14T11:53:39;7.90;99.90
15364;DHT22;7781;49.690;6.472;2023-03-14T11:56:15;7.90;99.90
15364;DHT22;7781;49.690;6.472;2023-03-14T11:58:54;7.80;99.90
15364;DHT22;7781;49.690;6.472;2023-03-14T12:01:32;7.90;99.90
15364;DHT22;7781;49.690;6.472;2023-03-14T12:04:09;7.90;99.90
15364;DHT22;7781;49.690;6.472;2023-03-14T12:06:46;8.00;99.90
15364;DHT22;7781;49.690;6.472;2023-03-14T12:09:18;8.00;99.90
15364;DHT22;7781;49.690;6.472;2023-03-14T12:11:49;8.10;99.90
15364;DHT22;7781;49.690;6.472;2023-03-14T12:14:23;8.20;99.90
15364;DHT22;7781;49.690;6.472;2023-03-14T12:16:58;8.30;99.90
15364;DHT22;7781;49.690;6.472;2023-03-14T12:19:33;8.40;99.90
15364;DHT22;7781;49.690;6.472;2023-03-14T12:22:12;8.60;99.90
15364;DHT22;7781;49.690;6.472;2023-03-14T12:24:47;8.60;99.90
15364;DHT22;7781;49.690;6.472;2023-03-14T12:27:44;8.70;99.90
15364;DHT22;7781;49.690;6.472;2023-03-14T12:30:26;8.70;99.90
15364;DHT22;7781;49.690;6.472;2023-03-14T12:33:27;9.00;99.90
15364;DHT22;7781;49.690;6.472;2023-03-14T12:36:02;9.10;99.90
15364;DHT22;7781;49.690;6.472;2023-03-14T12:38:49;9.00;99.90
15364;DHT22;7781;49.690;6.472;2023-03-14T12:41:24;8.80;99.90
15364;DHT22;7781;49.690;6.472;2023-03-14T12:43:53;8.60;99.90
15364;DHT22;7781;49.690;6.472;2023-03-14T12:46:24;8.50;99.90
15364;DHT22;7781;49.690;6.472;2023-03-14T12:49:04;8.50;99.90
15364;DHT22;7781;49.690;6.472;2023-03-14T12:51:35;8.50;99.90
15364;DHT22;7781;49.690;6.472;2023-03-14T12:54:28;8.80;99.90
15364;DHT22;7781;49.690;6.472;2023-03-14T12:57:09;9.10;99.90
15364;DHT22;7781;49.690;6.472;2023-03-14T12:59:42;9.70;99.90
15364;DHT22;7781;49.690;6.472;2023-03-14T13:02:22;9.90;99.90
15364;DHT22;7781;49.690;6.472;2023-03-14T13:05:01;9.60;99.90
15364;DHT22;7781;49.690;6.472;2023-03-14T13:07:33;9.40;99.90
15364;DHT22;7781;49.690;6.472;2023-03-14T13:10:14;9.40;99.90
15364;DHT22;7781;49.690;6.472;2023-03-14T13:12:50;9.40;99.90
15364;DHT22;7781;49.690;6.472;2023-03-14T13:15:23;9.40;99.90
15364;DHT22;7781;49.690;6.472;2023-03-14T13:17:54;9.40;99.90
15364;DHT22;7781;49.690;6.472;2023-03-14T13:20:29;9.40;99.90
15364;DHT22;7781;49.690;6.472;2023-03-14T13:22:58;9.30;99.90
15364;DHT22;7781;49.690;6.472;2023-03-14T13:25:31;9.30;99.90
15364;DHT22;7781;49.690;6.472;2023-03-14T13:28:03;9.20;99.90
15364;DHT22;7781;49.690;6.472;2023-03-14T13:30:39;9.10;99.90
15364;DHT22;7781;49.690;6.472;2023-03-14T13:33:12;9.00;99.90
15364;DHT22;7781;49.690;6.472;2023-03-14T13:35:46;9.10;99.90
15364;DHT22;7781;49.690;6.472;2023-03-14T13:38:17;9.00;99.90
15364;DHT22;7781;49.690;6.472;2023-03-14T13:40:47;9.40;99.90
15364;DHT22;7781;49.690;6.472;2023-03-14T13:43:23;10.00;99.90
15364;DHT22;7781;49.690;6.472;2023-03-14T13:45:54;10.40;99.90
15364;DHT22;7781;49.690;6.472;2023-03-14T13:48:27;10.80;99.90
15364;DHT22;7781;49.690;6.472;2023-03-14T13:51:00;11.40;99.90
15364;DHT22;7781;49.690;6.472;2023-03-14T13:53:30;11.70;99.90
15364;DHT22;7781;49.690;6.472;2023-03-14T13:56:02;11.80;99.90
15364;DHT22;7781;49.690;6.472;2023-03-14T13:58:31;11.70;99.90
15364;DHT22;7781;49.690;6.472;2023-03-14T14:01:04;11.00;99.90
15364;DHT22;7781;49.690;6.472;2023-03-14T14:03:36;10.60;99.90
15364;DHT22;7781;49.690;6.472;2023-03-14T14:06:16;10.30;99.90
15364;DHT22;7781;49.690;6.472;2023-03-14T14:08:47;10.10;99.90
15364;DHT22;7781;49.690;6.472;2023-03-14T14:11:22;9.90;99.90
15364;DHT22;7781;49.690;6.472;2023-03-14T14:14:15;9.80;99.90
15364;DHT22;7781;49.690;6.472;2023-03-14T14:16:47;9.60;99.90
15364;DHT22;7781;49.690;6.472;2023-03-14T14:19:19;9.70;99.90
15364;DHT22;7781;49.690;6.472;2023-03-14T14:21:51;9.90;99.90
15364;DHT22;7781;49.690;6.472;2023-03-14T14:24:21;10.40;99.90
15364;DHT22;7781;49.690;6.472;2023-03-14T14:26:54;10.90;99.90
15364;DHT22;7781;49.690;6.472;2023-03-14T14:29:28;11.00;99.90
15364;DHT22;7781;49.690;6.472;2023-03-14T14:32:02;11.00;99.90
15364;DHT22;7781;49.690;6.472;2023-03-14T14:34:39;10.80;99.90
15364;DHT22;7781;49.690;6.472;2023-03-14T14:37:20;10.50;99.90
15364;DHT22;7781;49.690;6.472;2023-03-14T14:39:52;10.30;99.90
15364;DHT22;7781;49.690;6.472;2023-03-14T14:42:25;10.00;99.90
15364;DHT22;7781;49.690;6.472;2023-03-14T14:44:55;9.90;99.90
15364;DHT22;7781;49.690;6.472;2023-03-14T14:47:26;9.70;99.90
15364;DHT22;7781;49.690;6.472;2023-03-14T14:50:00;9.70;99.90
15364;DHT22;7781;49.690;6.472;2023-03-14T14:52:44;9.60;99.90
15364;DHT22;7781;49.690;6.472;2023-03-14T14:55:18;9.70;99.90
15364;DHT22;7781;49.690;6.472;2023-03-14T14:57:51;9.60;99.90
15364;DHT22;7781;49.690;6.472;2023-03-14T15:00:23;9.60;99.90
15364;DHT22;7781;49.690;6.472;2023-03-14T15:02:53;9.50;99.90
15364;DHT22;7781;49.690;6.472;2023-03-14T15:05:24;9.40;99.90
15364;DHT22;7781;49.690;6.472;2023-03-14T15:07:55;9.40;99.90
15364;DHT22;7781;49.690;6.472;2023-03-14T15:10:25;9.30;99.90
15364;DHT22;7781;49.690;6.472;2023-03-14T15:12:54;9.30;99.90
15364;DHT22;7781;49.690;6.472;2023-03-14T15:15:22;9.10;99.90
15364;DHT22;7781;49.690;6.472;2023-03-14T15:17:52;9.00;99.90
15364;DHT22;7781;49.690;6.472;2023-03-14T15:20:20;8.70;99.90
15364;DHT22;7781;49.690;6.472;2023-03-14T15:22:51;8.70;99.90
15364;DHT22;7781;49.690;6.472;2023-03-14T15:25:21;9.00;99.90
15364;DHT22;7781;49.690;6.472;2023-03-14T15:28:16;8.90;99.90
15364;DHT22;7781;49.690;6.472;2023-03-14T15:30:47;9.00;99.90
15364;DHT22;7781;49.690;6.472;2023-03-14T15:33:16;8.90;99.90
15364;DHT22;7781;49.690;6.472;2023-03-14T15:35:44;9.10;99.90
15364;DHT22;7781;49.690;6.472;2023-03-14T15:38:16;9.20;99.90
15364;DHT22;7781;49.690;6.472;2023-03-14T15:40:49;9.40;99.90
15364;DHT22;7781;49.690;6.472;2023-03-14T15:43:18;9.10;99.90
15364;DHT22;7781;49.690;6.472;2023-03-14T15:45:47;9.00;99.90
15364;DHT22;7781;49.690;6.472;2023-03-14T15:48:18;8.90;99.90
15364;DHT22;7781;49.690;6.472;2023-03-14T15:50:48;8.70;99.90
15364;DHT22;7781;49.690;6.472;2023-03-14T15:53:16;8.50;99.90
15364;DHT22;7781;49.690;6.472;2023-03-14T15:55:45;8.50;99.90
15364;DHT22;7781;49.690;6.472;2023-03-14T15:58:17;8.50;99.90
15364;DHT22;7781;49.690;6.472;2023-03-14T16:00:48;8.30;99.90
15364;DHT22;7781;49.690;6.472;2023-03-14T16:03:17;8.20;99.90
15364;DHT22;7781;49.690;6.472;2023-03-14T16:05:45;8.10;99.90
15364;DHT22;7781;49.690;6.472;2023-03-14T16:08:14;8.00;99.90
15364;DHT22;7781;49.690;6.472;2023-03-14T16:10:44;8.00;99.90
15364;DHT22;7781;49.690;6.472;2023-03-14T16:13:13;7.90;99.90
15364;DHT22;7781;49.690;6.472;2023-03-14T16:15:52;7.70;99.90
15364;DHT22;7781;49.690;6.472;2023-03-14T16:18:22;7.60;99.90
15364;DHT22;7781;49.690;6.472;2023-03-14T16:20:53;7.30;99.90
15364;DHT22;7781;49.690;6.472;2023-03-14T16:23:22;7.00;99.90
15364;DHT22;7781;49.690;6.472;2023-03-14T16:25:52;6.80;99.90
15364;DHT22;7781;49.690;6.472;2023-03-14T16:28:21;6.50;99.90
15364;DHT22;7781;49.690;6.472;2023-03-14T16:30:52;6.30;99.90
15364;DHT22;7781;49.690;6.472;2023-03-14T16:33:26;6.30;99.90
15364;DHT22;7781;49.690;6.472;2023-03-14T16:35:59;6.40;99.90
15364;DHT22;7781;49.690;6.472;2023-03-14T16:38:32;6.40;99.90
15364;DHT22;7781;49.690;6.472;2023-03-14T16:41:02;6.50;99.90